createdAt,value
2017-12-12T00:01:37.565Z,8.20
2017-12-12T00:04:05.722Z,8.10
2017-12-12T00:06:33.794Z,8.10
2017-12-12T00:09:02.271Z,8.10
2017-12-12T00:11:30.341Z,8.10
2017-12-12T00:13:58.475Z,8.00
2017-12-12T00:16:26.578Z,8.10
2017-12-12T00:18:54.655Z,8.10
2017-12-12T00:21:23.520Z,8.00
2017-12-12T00:23:51.661Z,8.10
2017-12-12T00:26:19.746Z,8.10
2017-12-12T00:28:47.807Z,8.10
2017-12-12T00:31:16.305Z,8.10
2017-12-12T00:33:45.294Z,8.10
2017-12-12T00:36:14.135Z,8.20
2017-12-12T00:38:43.361Z,8.20
2017-12-12T00:41:11.431Z,8.20
2017-12-12T00:43:39.527Z,8.20
2017-12-12T00:46:07.599Z,8.10
2017-12-12T00:48:35.684Z,8.10
2017-12-12T00:51:03.755Z,8.20
2017-12-12T00:53:31.843Z,8.20
2017-12-12T00:55:59.917Z,8.30
2017-12-12T00:58:28.087Z,8.50
2017-12-12T01:00:56.263Z,8.50
2017-12-12T01:03:24.342Z,8.50
2017-12-12T01:05:52.416Z,8.40
2017-12-12T01:08:21.295Z,8.20
2017-12-12T01:10:49.350Z,8.30
2017-12-12T01:13:17.419Z,8.40
2017-12-12T01:15:45.772Z,8.40
2017-12-12T01:18:13.827Z,8.30
2017-12-12T01:20:42.018Z,8.10
2017-12-12T01:23:10.089Z,8.20
2017-12-12T01:25:38.452Z,8.10
2017-12-12T01:28:06.564Z,8.10
2017-12-12T01:30:34.739Z,8.00
2017-12-12T01:33:02.808Z,7.90
2017-12-12T01:35:30.882Z,8.00
2017-12-12T01:37:59.062Z,8.10
2017-12-12T01:40:27.223Z,8.10
2017-12-12T01:42:55.290Z,8.10
2017-12-12T01:45:23.382Z,8.10
2017-12-12T01:47:51.454Z,8.10
2017-12-12T01:50:19.511Z,8.00
2017-12-12T01:52:47.586Z,8.10
2017-12-12T01:55:16.069Z,8.00
2017-12-12T01:57:44.143Z,7.90
2017-12-12T02:00:12.215Z,8.10
2017-12-12T02:02:40.282Z,8.00
2017-12-12T02:05:08.344Z,8.10
2017-12-12T02:07:36.411Z,8.10
2017-12-12T02:10:04.480Z,8.10
2017-12-12T02:12:32.644Z,8.10
2017-12-12T02:15:00.733Z,8.10
2017-12-12T02:17:28.834Z,8.00
2017-12-12T02:19:57.664Z,8.10
2017-12-12T02:22:25.745Z,8.10
2017-12-12T02:24:53.808Z,8.10
2017-12-12T02:27:21.874Z,8.10
2017-12-12T02:29:49.946Z,8.00
2017-12-12T02:32:18.040Z,8.10
2017-12-12T02:34:46.097Z,8.10
2017-12-12T02:37:14.172Z,8.10
2017-12-12T02:39:42.254Z,8.10
2017-12-12T02:42:10.347Z,8.10
2017-12-12T02:44:40.148Z,8.10
2017-12-12T02:47:08.208Z,8.10
2017-12-12T02:49:36.285Z,8.00
2017-12-12T02:52:05.114Z,8.10
2017-12-12T02:54:33.191Z,8.10
2017-12-12T02:57:01.264Z,8.20
2017-12-12T02:59:29.408Z,8.20
2017-12-12T03:01:58.233Z,8.10
2017-12-12T03:04:26.306Z,8.10
2017-12-12T03:06:54.403Z,8.20
2017-12-12T03:09:22.600Z,8.20
2017-12-12T03:11:50.668Z,8.30
2017-12-12T03:14:19.510Z,8.30
2017-12-12T03:16:47.570Z,8.30
2017-12-12T03:19:15.689Z,8.30
2017-12-12T03:21:43.755Z,8.30
2017-12-12T03:24:11.930Z,8.40
2017-12-12T03:26:39.999Z,8.50
2017-12-12T03:29:08.078Z,8.40
2017-12-12T03:31:36.146Z,8.40
2017-12-12T03:34:04.207Z,8.50
2017-12-12T03:36:32.376Z,8.50
2017-12-12T03:39:00.443Z,8.50
2017-12-12T03:41:28.510Z,8.50
2017-12-12T03:43:56.583Z,8.60
2017-12-12T03:46:24.656Z,8.60
2017-12-12T03:48:52.719Z,8.70
2017-12-12T03:51:20.795Z,8.70
2017-12-12T03:53:48.867Z,8.70
2017-12-12T03:56:17.050Z,8.80
2017-12-12T03:58:45.230Z,8.80
2017-12-12T04:01:13.291Z,8.80
2017-12-12T04:03:41.363Z,8.80
2017-12-12T04:06:09.435Z,8.80
2017-12-12T04:08:37.494Z,8.70
2017-12-12T04:11:05.572Z,8.90
2017-12-12T04:13:33.642Z,8.80
2017-12-12T04:16:01.820Z,8.80
2017-12-12T04:18:30.204Z,8.80
2017-12-12T04:20:58.354Z,8.80
2017-12-12T04:23:26.429Z,8.90
2017-12-12T04:25:54.520Z,8.90
2017-12-12T04:28:23.448Z,8.70
2017-12-12T04:30:51.501Z,8.70
2017-12-12T04:33:19.576Z,8.70
2017-12-12T04:35:47.648Z,8.80
2017-12-12T04:38:15.721Z,8.80
2017-12-12T04:40:43.844Z,8.80
2017-12-12T04:43:11.917Z,8.80
2017-12-12T04:45:40.637Z,8.90
2017-12-12T04:48:09.467Z,8.90
2017-12-12T04:50:37.526Z,8.90
2017-12-12T04:53:05.601Z,8.80
2017-12-12T04:55:33.695Z,8.80
2017-12-12T04:58:01.764Z,8.70
2017-12-12T05:00:31.750Z,8.80
2017-12-12T05:02:59.825Z,8.80
2017-12-12T05:05:27.882Z,8.90
2017-12-12T05:07:55.967Z,8.90
2017-12-12T05:10:24.023Z,8.90
2017-12-12T05:12:52.095Z,8.90
2017-12-12T05:15:20.155Z,9.00
2017-12-12T05:17:48.223Z,9.00
2017-12-12T05:20:16.351Z,9.00
2017-12-12T05:22:44.419Z,9.00
2017-12-12T05:25:12.599Z,9.00
2017-12-12T05:27:40.659Z,9.00
2017-12-12T05:30:08.727Z,9.10
2017-12-12T05:32:36.817Z,9.10
2017-12-12T05:35:04.876Z,9.00
2017-12-12T05:37:32.934Z,9.10
2017-12-12T05:40:01.013Z,9.10
2017-12-12T05:42:29.080Z,9.10
2017-12-12T05:44:57.154Z,9.10
2017-12-12T05:47:25.960Z,9.20
2017-12-12T05:49:54.131Z,9.00
2017-12-12T05:52:22.200Z,9.00
2017-12-12T05:54:50.260Z,9.00
2017-12-12T05:57:18.339Z,8.90
2017-12-12T05:59:46.459Z,9.00
2017-12-12T06:02:14.522Z,8.90
2017-12-12T06:04:42.647Z,9.00
2017-12-12T06:07:10.714Z,8.90
2017-12-12T06:09:38.772Z,9.00
2017-12-12T06:12:06.839Z,8.90
2017-12-12T06:14:34.902Z,8.90
2017-12-12T06:17:03.003Z,9.00
2017-12-12T06:19:31.442Z,9.00
2017-12-12T06:21:59.515Z,9.00
2017-12-12T06:24:27.580Z,9.00
2017-12-12T06:26:55.638Z,8.90
2017-12-12T06:29:23.710Z,8.90
2017-12-12T06:31:51.780Z,9.00
2017-12-12T06:34:19.851Z,9.00
2017-12-12T06:36:47.923Z,9.00
2017-12-12T06:39:15.996Z,9.00
2017-12-12T06:41:44.069Z,9.00
2017-12-12T06:44:12.141Z,9.00
2017-12-12T06:46:40.214Z,8.90
2017-12-12T06:49:08.286Z,8.90
2017-12-12T06:51:36.352Z,8.90
2017-12-12T06:54:04.447Z,8.80
2017-12-12T06:56:32.518Z,8.90
2017-12-12T06:59:00.672Z,8.90
2017-12-12T07:01:28.722Z,8.90
2017-12-12T07:03:56.786Z,8.80
2017-12-12T07:06:24.919Z,8.90
2017-12-12T07:08:53.000Z,8.80
2017-12-12T07:11:21.058Z,8.80
2017-12-12T07:13:49.125Z,8.70
2017-12-12T07:16:17.311Z,8.70
2017-12-12T07:18:45.383Z,8.70
2017-12-12T07:21:13.468Z,8.70
2017-12-12T07:23:41.543Z,8.60
2017-12-12T07:26:10.385Z,8.50
2017-12-12T07:28:38.446Z,8.50
2017-12-12T07:31:06.500Z,8.60
2017-12-12T07:33:34.564Z,8.50
2017-12-12T07:36:02.634Z,8.60
2017-12-12T07:38:30.690Z,8.60
2017-12-12T07:40:59.525Z,8.50
2017-12-12T07:43:27.627Z,8.50
2017-12-12T07:45:55.727Z,8.50
2017-12-12T07:48:23.865Z,8.50
2017-12-12T07:50:51.946Z,8.40
2017-12-12T07:53:20.015Z,8.40
2017-12-12T07:55:48.502Z,8.40
2017-12-12T07:58:17.330Z,8.40
2017-12-12T08:00:45.491Z,8.40
2017-12-12T08:03:13.602Z,8.40
2017-12-12T08:05:41.679Z,8.40
2017-12-12T08:08:09.756Z,8.40
2017-12-12T08:10:37.817Z,8.50
2017-12-12T08:13:05.891Z,8.40
2017-12-12T08:15:33.960Z,8.40
2017-12-12T08:18:02.048Z,8.70
2017-12-12T08:20:30.111Z,9.00
2017-12-12T08:22:58.186Z,9.00
2017-12-12T08:25:26.257Z,8.70
2017-12-12T08:27:54.357Z,8.60
2017-12-12T08:30:22.448Z,8.40
2017-12-12T08:32:50.517Z,8.30
2017-12-12T08:35:18.592Z,8.20
2017-12-12T08:37:46.667Z,8.10
2017-12-12T08:40:14.741Z,7.90
2017-12-12T08:42:42.814Z,7.50
2017-12-12T08:45:10.898Z,7.30
2017-12-12T08:47:38.971Z,6.90
2017-12-12T08:50:07.034Z,6.60
2017-12-12T08:52:35.160Z,6.50
2017-12-12T08:55:03.231Z,6.20
2017-12-12T08:57:31.388Z,6.00
2017-12-12T08:59:59.461Z,5.80
2017-12-12T09:02:28.317Z,5.60
2017-12-12T09:04:56.392Z,5.60
2017-12-12T09:07:24.455Z,5.50
2017-12-12T09:09:52.531Z,5.40
2017-12-12T09:12:20.598Z,5.40
2017-12-12T09:14:48.658Z,5.40
2017-12-12T09:17:16.730Z,5.40
2017-12-12T09:19:44.804Z,5.40
2017-12-12T09:22:12.867Z,5.30
2017-12-12T09:24:40.941Z,5.20
2017-12-12T09:27:08.990Z,5.20
2017-12-12T09:29:37.063Z,5.20
2017-12-12T09:32:05.136Z,5.20
2017-12-12T09:34:33.241Z,5.20
2017-12-12T09:37:01.306Z,5.10
2017-12-12T09:39:29.379Z,5.10
2017-12-12T09:41:57.456Z,5.20
2017-12-12T09:44:25.511Z,5.20
2017-12-12T09:46:53.577Z,5.10
2017-12-12T09:49:21.634Z,5.20
2017-12-12T09:51:49.711Z,5.20
2017-12-12T09:54:17.771Z,5.30
2017-12-12T09:56:45.855Z,5.40
2017-12-12T09:59:13.951Z,5.40
2017-12-12T10:01:42.030Z,5.40
2017-12-12T10:04:10.136Z,5.30
2017-12-12T10:06:38.235Z,5.20
2017-12-12T10:09:06.327Z,5.20
2017-12-12T10:11:34.404Z,5.10
2017-12-12T10:14:02.476Z,4.90
2017-12-12T10:16:30.544Z,4.90
2017-12-12T10:18:58.600Z,4.80
2017-12-12T10:21:26.686Z,4.90
2017-12-12T10:23:54.759Z,4.90
2017-12-12T10:26:22.819Z,4.90
2017-12-12T10:28:50.891Z,4.90
2017-12-12T10:31:18.974Z,4.80
2017-12-12T10:33:47.037Z,4.80
2017-12-12T10:36:15.120Z,4.70
2017-12-12T10:38:43.182Z,4.70
2017-12-12T10:41:11.314Z,4.70
2017-12-12T10:43:39.384Z,4.70
2017-12-12T10:46:07.452Z,4.70
2017-12-12T10:48:35.536Z,4.70
2017-12-12T10:51:03.601Z,4.80
2017-12-12T10:53:31.678Z,4.90
2017-12-12T10:55:59.755Z,4.90
2017-12-12T10:58:27.831Z,5.00
2017-12-12T11:00:56.579Z,5.00
2017-12-12T11:03:24.638Z,5.00
2017-12-12T11:05:52.697Z,5.00
2017-12-12T11:08:21.530Z,5.10
2017-12-12T11:10:49.620Z,5.10
2017-12-12T11:13:17.686Z,5.20
2017-12-12T11:15:45.772Z,5.10
2017-12-12T11:18:13.839Z,5.20
2017-12-12T11:20:41.912Z,5.20
2017-12-12T11:23:09.982Z,5.20
2017-12-12T11:25:38.099Z,5.10
2017-12-12T11:28:06.166Z,5.10
2017-12-12T11:30:34.360Z,5.10
2017-12-12T11:33:02.409Z,5.20
2017-12-12T11:35:30.477Z,5.10
2017-12-12T11:37:59.312Z,5.10
2017-12-12T11:40:27.399Z,5.10
2017-12-12T11:42:55.477Z,5.20
2017-12-12T11:45:23.648Z,5.10
2017-12-12T11:47:51.723Z,5.20
2017-12-12T11:50:19.797Z,5.20
2017-12-12T11:52:47.868Z,5.30
2017-12-12T11:55:16.746Z,5.20
2017-12-12T11:57:44.818Z,5.20
2017-12-12T12:00:12.892Z,5.20
2017-12-12T12:02:41.060Z,5.20
2017-12-12T12:05:09.138Z,5.00
2017-12-12T12:07:37.211Z,5.10
2017-12-12T12:10:05.277Z,5.10
2017-12-12T12:12:33.356Z,5.10
2017-12-12T12:15:02.204Z,5.30
2017-12-12T12:17:30.296Z,5.30
2017-12-12T12:19:58.368Z,5.30
2017-12-12T12:22:26.510Z,5.40
2017-12-12T12:24:54.579Z,5.30
2017-12-12T12:27:22.684Z,5.30
2017-12-12T12:29:50.757Z,5.40
2017-12-12T12:32:18.828Z,5.40
2017-12-12T12:34:46.984Z,5.50
2017-12-12T12:37:15.055Z,5.60
2017-12-12T12:39:43.127Z,5.60
2017-12-12T12:42:11.204Z,5.60
2017-12-12T12:44:39.272Z,5.80
2017-12-12T12:47:07.367Z,5.70
2017-12-12T12:49:35.438Z,5.60
2017-12-12T12:52:03.517Z,5.70
2017-12-12T12:54:32.467Z,5.70
2017-12-12T12:57:00.544Z,5.70
2017-12-12T12:59:28.611Z,5.70
2017-12-12T13:01:56.687Z,5.60
2017-12-12T13:04:24.854Z,5.60
2017-12-12T13:06:52.927Z,5.40
2017-12-12T13:09:21.012Z,5.50
2017-12-12T13:11:49.062Z,5.50
2017-12-12T13:14:17.162Z,5.50
2017-12-12T13:16:45.220Z,5.60
2017-12-12T13:19:13.282Z,5.70
2017-12-12T13:21:41.355Z,5.50
2017-12-12T13:24:09.424Z,5.40
2017-12-12T13:26:37.497Z,5.40
2017-12-12T13:29:05.552Z,5.50
2017-12-12T13:31:33.636Z,5.50
2017-12-12T13:34:01.704Z,5.50
2017-12-12T13:36:29.767Z,5.40
2017-12-12T13:38:58.641Z,5.40
2017-12-12T13:41:26.718Z,5.50
2017-12-12T13:43:54.787Z,5.60
2017-12-12T13:46:22.871Z,5.40
2017-12-12T13:48:51.058Z,5.40
2017-12-12T13:51:19.128Z,5.40
2017-12-12T13:53:47.191Z,5.40
2017-12-12T13:56:15.263Z,5.40
2017-12-12T13:58:43.346Z,5.40
2017-12-12T14:01:11.455Z,5.40
2017-12-12T14:03:39.559Z,5.40
2017-12-12T14:06:08.345Z,5.30
2017-12-12T14:08:37.367Z,5.20
2017-12-12T14:11:05.501Z,5.20
2017-12-12T14:13:33.584Z,5.10
2017-12-12T14:16:01.651Z,5.00
2017-12-12T14:18:29.726Z,4.90
2017-12-12T14:20:57.805Z,4.90
2017-12-12T14:23:25.875Z,4.90
2017-12-12T14:25:53.963Z,4.90
2017-12-12T14:28:22.131Z,4.80
2017-12-12T14:30:50.186Z,4.80
2017-12-12T14:33:18.265Z,4.70
2017-12-12T14:35:46.325Z,4.60
2017-12-12T14:38:14.399Z,4.70
2017-12-12T14:40:42.477Z,4.60
2017-12-12T14:43:10.576Z,4.60
2017-12-12T14:45:39.056Z,4.70
2017-12-12T14:48:07.887Z,4.70
2017-12-12T14:50:35.967Z,4.70
2017-12-12T14:53:04.989Z,4.60
2017-12-12T14:55:33.074Z,4.50
2017-12-12T14:58:01.144Z,4.50
2017-12-12T15:00:29.202Z,4.40
2017-12-12T15:02:57.318Z,4.40
2017-12-12T15:05:25.427Z,4.30
2017-12-12T15:07:53.504Z,4.30
2017-12-12T15:10:21.564Z,4.30
2017-12-12T15:12:50.567Z,4.20
2017-12-12T15:15:18.626Z,4.10
2017-12-12T15:17:46.695Z,4.20
2017-12-12T15:20:14.772Z,4.10
2017-12-12T15:22:42.850Z,4.10
2017-12-12T15:25:10.924Z,4.00
2017-12-12T15:27:39.038Z,4.10
2017-12-12T15:30:07.129Z,4.00
2017-12-12T15:32:35.184Z,4.00
2017-12-12T15:35:03.270Z,3.90
2017-12-12T15:37:31.343Z,3.90
2017-12-12T15:39:59.412Z,3.90
2017-12-12T15:42:27.479Z,4.00
2017-12-12T15:44:55.551Z,3.90
2017-12-12T15:47:23.659Z,3.90
2017-12-12T15:49:51.718Z,3.80
2017-12-12T15:52:19.795Z,3.80
2017-12-12T15:54:47.869Z,3.80
2017-12-12T15:57:16.060Z,3.80
2017-12-12T15:59:44.111Z,3.70
2017-12-12T16:02:12.187Z,3.70
2017-12-12T16:04:40.249Z,3.60
2017-12-12T16:07:08.327Z,3.60
2017-12-12T16:09:36.537Z,3.60
2017-12-12T16:12:05.636Z,3.40
2017-12-12T16:14:33.704Z,3.40
2017-12-12T16:17:01.812Z,3.50
2017-12-12T16:19:29.871Z,3.50
2017-12-12T16:21:57.943Z,3.40
2017-12-12T16:24:26.012Z,3.40
2017-12-12T16:26:54.083Z,3.50
2017-12-12T16:29:22.147Z,3.40
2017-12-12T16:31:50.232Z,3.40
2017-12-12T16:34:18.294Z,3.50
2017-12-12T16:36:46.374Z,3.50
2017-12-12T16:39:14.434Z,3.50
2017-12-12T16:41:42.549Z,3.60
2017-12-12T16:44:10.624Z,3.50
2017-12-12T16:46:38.694Z,3.60
2017-12-12T16:49:06.772Z,3.50
2017-12-12T16:51:35.602Z,3.50
2017-12-12T16:54:03.667Z,3.50
2017-12-12T16:56:31.744Z,3.50
2017-12-12T16:58:59.814Z,3.40
2017-12-12T17:01:27.883Z,3.50
2017-12-12T17:03:55.974Z,3.50
2017-12-12T17:06:24.085Z,3.40
2017-12-12T17:08:53.359Z,3.40
2017-12-12T17:11:21.423Z,3.40
2017-12-12T17:13:49.534Z,3.50
2017-12-12T17:16:18.383Z,3.40
2017-12-12T17:18:46.454Z,3.40
2017-12-12T17:21:14.554Z,3.40
2017-12-12T17:23:42.632Z,3.50
2017-12-12T17:26:11.515Z,3.40
2017-12-12T17:28:39.551Z,3.50
2017-12-12T17:31:07.626Z,3.60
2017-12-12T17:33:36.602Z,3.50
2017-12-12T17:36:04.691Z,3.40
2017-12-12T17:38:32.742Z,3.40
2017-12-12T17:41:01.253Z,3.40
2017-12-12T17:43:29.310Z,3.50
2017-12-12T17:45:57.390Z,3.30
2017-12-12T17:48:25.447Z,3.40
2017-12-12T17:50:53.514Z,3.30
2017-12-12T17:53:30.499Z,3.40
2017-12-12T17:55:58.571Z,3.30
2017-12-12T17:58:26.634Z,3.40
2017-12-12T18:00:54.726Z,3.40
2017-12-12T18:03:22.804Z,3.30
2017-12-12T18:05:50.866Z,3.30
2017-12-12T18:08:19.027Z,3.30
2017-12-12T18:10:47.095Z,3.30
2017-12-12T18:13:15.168Z,3.20
2017-12-12T18:15:43.239Z,3.20
2017-12-12T18:18:11.315Z,3.20
2017-12-12T18:20:39.390Z,3.20
2017-12-12T18:23:07.466Z,3.20
2017-12-12T18:25:35.539Z,3.20
2017-12-12T18:28:03.612Z,3.10
2017-12-12T18:30:31.666Z,3.10
2017-12-12T18:32:59.738Z,3.10
2017-12-12T18:35:27.811Z,3.00
2017-12-12T18:37:55.882Z,3.10
2017-12-12T18:40:23.951Z,3.10
2017-12-12T18:42:52.919Z,3.00
2017-12-12T18:45:21.706Z,3.10
2017-12-12T18:47:49.806Z,3.00
2017-12-12T18:50:17.984Z,3.00
2017-12-12T18:52:46.051Z,3.00
2017-12-12T18:55:14.640Z,3.00
2017-12-12T18:57:42.708Z,3.00
2017-12-12T19:00:10.885Z,3.00
2017-12-12T19:02:38.967Z,3.10
2017-12-12T19:05:07.039Z,3.10
2017-12-12T19:07:35.101Z,3.10
2017-12-12T19:10:03.173Z,3.00
2017-12-12T19:12:31.240Z,3.00
2017-12-12T19:14:59.401Z,3.10
2017-12-12T19:17:27.464Z,3.10
2017-12-12T19:19:55.543Z,3.10
2017-12-12T19:22:23.631Z,3.10
2017-12-12T19:24:52.484Z,3.00
2017-12-12T19:27:20.552Z,3.00
2017-12-12T19:29:48.639Z,2.90
2017-12-12T19:32:16.706Z,2.90
2017-12-12T19:34:44.794Z,2.90
2017-12-12T19:37:12.855Z,2.80
2017-12-12T19:39:40.931Z,2.80
2017-12-12T19:42:09.090Z,2.70
2017-12-12T19:44:37.226Z,2.70
2017-12-12T19:47:05.347Z,2.60
2017-12-12T19:49:33.414Z,2.60
2017-12-12T19:52:01.486Z,2.70
2017-12-12T19:54:29.554Z,2.70
2017-12-12T19:56:57.632Z,2.70
2017-12-12T19:59:25.951Z,2.70
2017-12-12T20:01:54.025Z,2.70
2017-12-12T20:04:22.098Z,2.70
2017-12-12T20:06:50.164Z,2.70
2017-12-12T20:09:18.253Z,2.70
2017-12-12T20:11:46.323Z,2.70
2017-12-12T20:14:14.403Z,2.60
2017-12-12T20:16:42.476Z,2.60
2017-12-12T20:19:10.547Z,2.50
2017-12-12T20:21:38.635Z,2.50
2017-12-12T20:24:06.715Z,2.40
2017-12-12T20:26:34.799Z,2.60
2017-12-12T20:29:03.669Z,2.50
2017-12-12T20:31:32.185Z,2.50
2017-12-12T20:34:01.010Z,2.50
2017-12-12T20:36:29.083Z,2.50
2017-12-12T20:38:57.191Z,2.40
2017-12-12T20:41:26.029Z,2.50
2017-12-12T20:43:54.147Z,2.50
2017-12-12T20:46:22.215Z,2.40
2017-12-12T20:48:50.388Z,2.50
2017-12-12T20:51:18.462Z,2.60
2017-12-12T20:53:46.536Z,2.50
2017-12-12T20:56:15.370Z,2.80
2017-12-12T20:58:43.457Z,2.80
2017-12-12T21:01:11.532Z,2.80
2017-12-12T21:03:39.589Z,2.90
2017-12-12T21:06:07.667Z,3.00
2017-12-12T21:08:35.740Z,3.00
2017-12-12T21:11:03.823Z,3.00
2017-12-12T21:13:31.999Z,2.90
2017-12-12T21:16:00.063Z,2.90
2017-12-12T21:18:28.139Z,2.90
2017-12-12T21:20:56.209Z,2.80
2017-12-12T21:23:24.671Z,2.80
2017-12-12T21:25:52.755Z,2.90
2017-12-12T21:28:20.827Z,3.00
2017-12-12T21:30:48.907Z,2.90
2017-12-12T21:33:16.982Z,2.90
2017-12-12T21:35:45.043Z,2.80
2017-12-12T21:38:13.120Z,2.80
2017-12-12T21:40:42.188Z,3.00
2017-12-12T21:43:10.886Z,3.00
2017-12-12T21:45:39.011Z,3.00
2017-12-12T21:48:07.844Z,2.90
2017-12-12T21:50:35.915Z,2.90
2017-12-12T21:53:03.992Z,3.00
2017-12-12T21:55:32.068Z,3.00
2017-12-12T21:58:00.144Z,2.90
2017-12-12T22:00:28.204Z,2.90
2017-12-12T22:02:56.281Z,2.90
2017-12-12T22:05:24.354Z,2.90
2017-12-12T22:07:52.428Z,2.90
2017-12-12T22:10:20.501Z,2.90
2017-12-12T22:12:48.569Z,2.80
2017-12-12T22:15:16.633Z,2.90
2017-12-12T22:17:44.704Z,2.90
2017-12-12T22:20:12.766Z,3.10
2017-12-12T22:22:40.839Z,3.10
2017-12-12T22:25:09.808Z,3.10
2017-12-12T22:27:38.818Z,3.10
2017-12-12T22:30:06.885Z,3.20
2017-12-12T22:32:34.960Z,3.20
2017-12-12T22:35:03.039Z,3.20
2017-12-12T22:37:31.124Z,3.20
2017-12-12T22:40:00.192Z,3.20
2017-12-12T22:42:28.257Z,3.20
2017-12-12T22:44:56.332Z,3.30
2017-12-12T22:47:24.402Z,3.30
2017-12-12T22:49:52.467Z,3.40
2017-12-12T22:52:20.579Z,3.40
2017-12-12T22:54:48.735Z,3.40
2017-12-12T22:57:16.824Z,3.40
2017-12-12T22:59:44.878Z,3.50
2017-12-12T23:02:12.955Z,3.50
2017-12-12T23:04:41.027Z,3.50
2017-12-12T23:07:09.110Z,3.50
2017-12-12T23:09:38.023Z,3.50
2017-12-12T23:12:06.110Z,3.50
2017-12-12T23:14:34.559Z,3.40
2017-12-12T23:17:02.836Z,3.50
2017-12-12T23:19:31.661Z,3.50
2017-12-12T23:21:59.767Z,3.50
2017-12-12T23:24:27.825Z,3.40
2017-12-12T23:26:55.895Z,3.50
2017-12-12T23:29:23.964Z,3.50
2017-12-12T23:31:52.020Z,3.60
2017-12-12T23:34:20.093Z,3.60
2017-12-12T23:36:48.184Z,3.50
2017-12-12T23:39:16.257Z,3.50
2017-12-12T23:41:44.323Z,3.60
2017-12-12T23:44:12.415Z,3.60
2017-12-12T23:46:40.479Z,3.50
2017-12-12T23:49:08.549Z,3.50
2017-12-12T23:51:36.612Z,3.50
2017-12-12T23:54:04.697Z,3.60
2017-12-12T23:56:33.539Z,3.50
2017-12-12T23:59:01.611Z,3.50
